Time;durP1;ratioP1;P1;durP2;ratioP2;P2;SDS_P1;SDS_P2;PMS_P1;PMS_P2;Temp;Humidity;BMP_temperature;BMP_pressure;BME280_temperature;BME280_humidity;BME280_pressure;Samples;Min_cycle;Max_cycle;Signal;HPM_P1;HPM_P2
2022/10/11 00:01:49;;;;;;;3.07;2.30;;;15.30;77.80;15.60;96886.00;;;;5054314;28;20319;-84
2022/10/11 00:04:16;;;;;;;3.30;3.10;;;15.30;77.00;15.60;96893.00;;;;5054202;28;20793;-85
2022/10/11 00:06:43;;;;;;;3.50;2.73;;;15.30;77.20;15.60;96892.00;;;;5054578;28;20246;-85
2022/10/11 00:09:11;;;;;;;3.57;3.07;;;15.40;77.40;15.70;96907.00;;;;5054909;28;20658;-84
2022/10/11 00:11:38;;;;;;;4.03;3.20;;;15.40;77.50;15.70;96905.00;;;;5054890;28;20209;-86
2022/10/11 00:14:07;;;;;;;2.53;2.40;;;15.40;77.70;15.70;96914.00;;;;5054082;28;20201;-84
2022/10/11 00:16:34;;;;;;;2.67;2.50;;;15.40;77.90;15.80;96901.00;;;;5073007;28;20219;-84
2022/10/11 00:19:01;;;;;;;1.97;1.87;;;15.40;78.10;15.80;96908.00;;;;5073435;28;20259;-84
2022/10/11 00:21:29;;;;;;;1.93;1.67;;;15.50;78.40;15.80;96910.00;;;;5053434;28;20272;-85
2022/10/11 00:23:56;;;;;;;2.10;1.70;;;15.50;78.60;15.90;96902.00;;;;5053343;28;20216;-85
2022/10/11 00:26:23;;;;;;;2.17;1.97;;;15.50;78.80;15.90;96911.00;;;;5052294;28;20287;-84
2022/10/11 00:28:52;;;;;;;2.33;2.10;;;15.50;79.00;16.00;96903.00;;;;5051146;28;20283;-84
2022/10/11 00:31:21;;;;;;;2.53;1.80;;;15.60;79.10;16.00;96903.00;;;;5053485;28;20220;-83
2022/10/11 00:33:48;;;;;;;1.90;1.80;;;15.70;79.30;16.10;96905.00;;;;5053526;28;20608;-84
2022/10/11 00:36:17;;;;;;;2.17;1.97;;;15.70;79.30;16.10;96915.00;;;;5033085;28;20285;-84
2022/10/11 00:38:45;;;;;;;2.27;2.17;;;15.80;79.30;16.20;96902.00;;;;5033293;28;20225;-84
2022/10/11 00:41:14;;;;;;;2.60;2.40;;;15.80;79.30;16.20;96913.00;;;;5033340;28;20298;-85
2022/10/11 00:43:42;;;;;;;2.50;2.13;;;15.90;79.40;16.30;96914.00;;;;5047832;28;20236;-84
2022/10/11 00:46:31;;;;;;;3.93;2.40;;;15.90;79.40;16.30;96920.00;;;;5064575;28;20295;-84
2022/10/11 00:49:07;;;;;;;2.50;2.30;;;16.00;79.70;16.40;96919.00;;;;5065475;28;20593;-84
2022/10/11 00:51:45;;;;;;;4.17;2.23;;;16.00;79.40;16.40;96920.00;;;;5052991;28;20197;-84
2022/10/11 00:54:18;;;;;;;2.30;2.10;;;16.10;79.50;16.50;96928.00;;;;5052793;28;20185;-84
2022/10/11 00:56:52;;;;;;;3.00;2.70;;;16.10;79.50;16.50;96936.00;;;;5052674;28;20271;-84
2022/10/11 00:59:24;;;;;;;2.33;2.13;;;16.10;79.50;16.60;96939.00;;;;5051265;28;20220;-84
2022/10/11 01:01:53;;;;;;;3.07;2.53;;;16.20;79.60;16.60;96933.00;;;;5039229;28;20212;-85
2022/10/11 01:04:20;;;;;;;2.77;2.57;;;16.20;79.80;16.70;96930.00;;;;5053453;28;20287;-84
2022/10/11 01:06:49;;;;;;;2.37;2.17;;;16.30;80.10;16.70;96934.00;;;;5070473;28;20300;-85
2022/10/11 01:09:18;;;;;;;4.07;2.50;;;16.30;80.30;16.70;96923.00;;;;5069994;28;20427;-85
2022/10/11 01:11:47;;;;;;;3.73;2.77;;;16.40;80.50;16.80;96926.00;;;;5062281;28;20645;-86
2022/10/11 01:14:53;;;;;;;2.63;2.43;;;16.40;80.70;16.80;96924.00;;;;5059017;28;20227;-85
2022/10/11 01:17:34;;;;;;;2.60;2.40;;;16.40;81.30;16.80;96919.00;;;;5051296;28;20215;-86
2022/10/11 01:20:43;;;;;;;2.67;2.30;;;16.50;81.00;16.90;96922.00;;;;5052609;28;20220;-86
2022/10/11 01:24:06;;;;;;;2.30;2.20;;;16.50;81.10;16.90;96921.00;;;;5052970;28;20244;-86
2022/10/11 01:27:29;;;;;;;2.33;2.13;;;16.60;81.50;16.90;96918.00;;;;5047182;28;20228;-86
2022/10/11 01:30:19;;;;;;;2.30;2.10;;;16.60;81.30;16.90;96922.00;;;;5065644;28;20196;-85
2022/10/11 01:32:59;;;;;;;2.53;2.33;;;16.60;80.80;16.90;96914.00;;;;5065508;28;20595;-85
2022/10/11 01:35:38;;;;;;;2.90;2.27;;;16.60;80.80;16.90;96915.00;;;;5066830;28;20219;-86
2022/10/11 01:38:16;;;;;;;4.30;2.67;;;16.60;80.80;16.90;96909.00;;;;5060154;28;20201;-85
2022/10/11 01:40:50;;;;;;;3.83;2.07;;;16.60;80.90;16.90;96915.00;;;;5058480;28;20199;-86
2022/10/11 01:43:21;;;;;;;2.60;2.40;;;16.60;81.00;16.90;96918.00;;;;5062080;28;20216;-86
2022/10/11 01:45:54;;;;;;;2.23;2.03;;;16.60;80.90;16.90;96918.00;;;;5066391;28;20212;-86
2022/10/11 01:48:21;;;;;;;3.87;2.80;;;16.60;81.00;16.90;96918.00;;;;5066180;28;20184;-85
2022/10/11 01:50:51;;;;;;;3.60;2.53;;;16.70;81.20;17.00;96923.00;;;;5056836;28;20197;-86
2022/10/11 01:53:39;;;;;;;3.13;2.47;;;16.70;81.20;17.00;96934.00;;;;5066686;28;20240;-86
2022/10/11 01:56:23;;;;;;;3.00;2.37;;;16.70;81.30;17.00;96930.00;;;;5058832;28;20677;-85
2022/10/11 01:59:16;;;;;;;2.77;2.57;;;16.70;81.30;17.00;96933.00;;;;5062944;28;20251;-86
2022/10/11 02:02:02;;;;;;;2.80;2.10;;;16.70;81.40;17.10;96930.00;;;;5063582;28;20288;-86
2022/10/11 02:04:37;;;;;;;3.10;2.37;;;16.80;81.40;17.10;96929.00;;;;5044069;28;20213;-86
2022/10/11 02:07:12;;;;;;;2.97;2.70;;;16.80;81.20;17.10;96925.00;;;;5062400;28;20210;-86
2022/10/11 02:09:49;;;;;;;2.33;2.10;;;16.80;81.20;17.10;96921.00;;;;5067637;28;20223;-86
2022/10/11 02:12:25;;;;;;;3.50;2.53;;;16.80;81.10;17.10;96921.00;;;;5061959;28;20213;-86
2022/10/11 02:14:56;;;;;;;2.77;2.30;;;16.80;81.10;17.10;96928.00;;;;5060398;28;20193;-86
2022/10/11 02:17:32;;;;;;;3.83;2.53;;;16.80;81.00;17.20;96920.00;;;;5052270;28;20216;-86
2022/10/11 02:20:03;;;;;;;4.13;2.70;;;16.80;80.90;17.20;96930.00;;;;5065452;28;20303;-86
2022/10/11 02:22:35;;;;;;;2.40;2.20;;;16.80;80.90;17.20;96926.00;;;;5069575;28;20220;-86
2022/10/11 02:25:08;;;;;;;2.40;2.20;;;16.80;80.80;17.20;96936.00;;;;5069879;28;20196;-86
2022/10/11 02:27:40;;;;;;;2.90;2.43;;;16.90;80.70;17.20;96938.00;;;;5070135;28;20271;-84
2022/10/11 02:30:10;;;;;;;3.23;2.50;;;16.90;81.30;17.20;96941.00;;;;5071411;28;20197;-86
2022/10/11 02:32:43;;;;;;;3.13;2.30;;;16.90;80.50;17.20;96941.00;;;;5069404;28;20248;-85
2022/10/11 02:35:13;;;;;;;2.67;2.47;;;16.90;80.60;17.20;96947.00;;;;5068472;28;20645;-86
2022/10/11 02:37:50;;;;;;;2.73;2.30;;;16.90;80.60;17.30;96941.00;;;;5066677;28;20235;-85
2022/10/11 02:40:25;;;;;;;3.87;2.60;;;16.90;80.50;17.30;96940.00;;;;5057885;28;20212;-86
2022/10/11 02:43:00;;;;;;;2.43;2.33;;;16.90;80.50;17.30;96938.00;;;;5059398;28;20222;-86
2022/10/11 02:45:34;;;;;;;3.53;2.40;;;16.90;80.50;17.30;96931.00;;;;5068531;28;20303;-86
2022/10/11 02:48:04;;;;;;;2.93;2.20;;;17.00;80.50;17.30;96929.00;;;;5067977;28;20200;-86
2022/10/11 02:50:32;;;;;;;3.60;2.50;;;17.00;81.10;17.30;96936.00;;;;5062641;28;20212;-86
2022/10/11 02:52:59;;;;;;;3.00;2.70;;;17.00;80.40;17.30;96928.00;;;;5066647;28;20284;-86
2022/10/11 02:55:26;;;;;;;2.80;2.60;;;17.00;80.40;17.30;96921.00;;;;5064919;28;20644;-86
2022/10/11 02:57:53;;;;;;;2.40;2.30;;;17.00;80.40;17.30;96932.00;;;;5065061;28;20193;-86
2022/10/11 03:00:20;;;;;;;3.00;2.60;;;17.00;80.30;17.30;96934.00;;;;5048180;28;20227;-85
2022/10/11 03:02:48;;;;;;;2.90;2.70;;;17.00;80.30;17.30;96939.00;;;;5047198;28;20308;-86
2022/10/11 03:05:16;;;;;;;2.50;2.30;;;17.00;80.30;17.30;96943.00;;;;5054566;28;20276;-85
2022/10/11 03:07:44;;;;;;;3.27;2.70;;;17.00;80.30;17.40;96944.00;;;;5046535;28;20225;-86
2022/10/11 03:10:11;;;;;;;2.77;2.50;;;17.00;80.30;17.40;96945.00;;;;5057136;28;20204;-86
2022/10/11 03:12:38;;;;;;;4.43;2.50;;;17.00;80.30;17.40;96946.00;;;;5064999;28;20276;-85
2022/10/11 03:15:06;;;;;;;3.40;2.47;;;17.10;80.40;17.40;96951.00;;;;5071154;28;20196;-86
2022/10/11 03:17:34;;;;;;;3.53;2.50;;;17.00;80.40;17.40;96951.00;;;;5067949;28;20219;-85
2022/10/11 03:20:01;;;;;;;2.87;2.63;;;17.10;80.40;17.40;96950.00;;;;5065270;28;20217;-86
2022/10/11 03:22:29;;;;;;;3.37;3.07;;;17.10;80.40;17.40;96947.00;;;;5069766;28;20299;-86
2022/10/11 03:24:56;;;;;;;3.57;2.70;;;17.10;80.50;17.40;96955.00;;;;5065689;28;20227;-86
2022/10/11 03:27:23;;;;;;;3.13;2.50;;;17.10;80.40;17.40;96954.00;;;;5060607;28;20231;-86
2022/10/11 03:29:50;;;;;;;2.60;2.40;;;17.10;80.40;17.40;96956.00;;;;5062353;28;20292;-86
2022/10/11 03:32:17;;;;;;;2.73;2.53;;;17.10;80.30;17.40;96955.00;;;;5067848;28;20247;-86
2022/10/11 03:34:44;;;;;;;2.67;2.47;;;17.10;80.30;17.40;96950.00;;;;5062761;28;20221;-86
2022/10/11 03:37:11;;;;;;;2.53;2.37;;;17.10;80.30;17.40;96952.00;;;;5057589;28;20224;-86
2022/10/11 03:39:40;;;;;;;2.47;2.20;;;17.10;80.30;17.40;96951.00;;;;5067224;28;20244;-86
2022/10/11 03:42:07;;;;;;;2.20;2.10;;;17.10;80.30;17.40;96949.00;;;;5056628;28;20240;-86
2022/10/11 03:44:34;;;;;;;4.20;2.70;;;17.10;80.20;17.40;96950.00;;;;5050846;28;20229;-86
2022/10/11 03:47:01;;;;;;;2.93;2.40;;;17.10;80.20;17.50;96954.00;;;;5065030;28;20193;-86
2022/10/11 03:49:28;;;;;;;5.27;2.80;;;17.10;80.20;17.40;96956.00;;;;5063060;28;20284;-86
2022/10/11 03:51:55;;;;;;;2.50;2.30;;;17.10;80.10;17.40;96949.00;;;;5057914;28;20247;-86
2022/10/11 03:54:22;;;;;;;2.60;2.40;;;17.10;80.10;17.40;96963.00;;;;5064767;28;20197;-86
2022/10/11 03:56:51;;;;;;;2.90;2.60;;;17.10;80.00;17.50;96971.00;;;;5066174;28;20257;-86
2022/10/11 03:59:18;;;;;;;2.60;2.40;;;17.10;79.90;17.40;96973.00;;;;5064804;28;20702;-86
2022/10/11 04:01:45;;;;;;;3.27;2.60;;;17.10;80.00;17.50;96983.00;;;;5061853;28;20244;-86
2022/10/11 04:04:12;;;;;;;4.10;2.90;;;17.10;80.00;17.50;96982.00;;;;5063780;28;20212;-86
2022/10/11 04:06:39;;;;;;;6.20;2.90;;;17.10;80.10;17.50;96991.00;;;;5065437;28;20275;-86
2022/10/11 04:09:06;;;;;;;2.90;2.60;;;17.10;80.20;17.50;96986.00;;;;5065074;28;20238;-86
2022/10/11 04:11:34;;;;;;;2.80;2.60;;;17.20;80.30;17.50;96982.00;;;;5065569;28;20264;-86
2022/10/11 04:14:02;;;;;;;4.50;3.40;;;17.10;80.20;17.50;96981.00;;;;5065501;28;20204;-85
2022/10/11 04:16:29;;;;;;;3.20;2.90;;;17.20;80.30;17.50;96984.00;;;;5045738;28;20662;-86
2022/10/11 04:18:56;;;;;;;3.00;2.80;;;17.20;80.30;17.50;96980.00;;;;5058882;28;20232;-86
2022/10/11 04:21:23;;;;;;;3.30;3.00;;;17.20;80.30;17.50;96988.00;;;;5064236;28;20203;-86
2022/10/11 04:23:50;;;;;;;3.07;2.77;;;17.20;80.30;17.50;96989.00;;;;5065409;28;20216;-86
2022/10/11 04:26:17;;;;;;;3.10;2.90;;;17.20;80.30;17.60;96988.00;;;;5063041;28;20196;-86
2022/10/11 04:28:45;;;;;;;4.37;3.20;;;17.20;80.30;17.60;96987.00;;;;5048369;28;20591;-86
2022/10/11 04:31:13;;;;;;;4.00;2.97;;;17.20;80.30;17.60;96989.00;;;;5053731;28;20202;-85
2022/10/11 04:33:40;;;;;;;3.43;3.20;;;17.20;80.30;17.60;96993.00;;;;5045085;28;20300;-86
2022/10/11 04:36:08;;;;;;;3.80;3.10;;;17.30;80.30;17.60;96990.00;;;;5060749;28;20243;-86
2022/10/11 04:38:35;;;;;;;3.17;2.87;;;17.30;80.30;17.60;96991.00;;;;5062839;28;20288;-86
2022/10/11 04:41:10;;;;;;;3.40;3.10;;;17.30;80.30;17.70;96991.00;;;;5059788;28;20220;-86
2022/10/11 04:43:37;;;;;;;3.20;2.83;;;17.30;80.40;17.70;96996.00;;;;5070104;28;20495;-86
2022/10/11 04:46:05;;;;;;;3.40;3.10;;;17.30;80.30;17.70;96988.00;;;;5069219;28;20204;-86
2022/10/11 04:48:34;;;;;;;4.77;3.27;;;17.30;80.30;17.70;96992.00;;;;5066418;28;20216;-86
2022/10/11 04:51:01;;;;;;;3.50;3.20;;;17.30;80.40;17.70;96991.00;;;;5064560;28;20232;-86
2022/10/11 04:53:29;;;;;;;3.43;2.83;;;17.40;80.50;17.80;96996.00;;;;5064606;28;20208;-86
2022/10/11 04:55:59;;;;;;;3.60;3.10;;;17.30;80.40;17.80;97001.00;;;;5064602;28;20193;-86
2022/10/11 04:58:27;;;;;;;3.00;2.70;;;17.40;80.50;17.80;97001.00;;;;5058952;28;20200;-86
2022/10/11 05:00:54;;;;;;;4.93;3.10;;;17.40;80.40;17.80;96998.00;;;;5060748;28;20220;-86
2022/10/11 05:03:22;;;;;;;3.60;3.30;;;17.40;80.30;17.80;96987.00;;;;5063124;28;20256;-86
2022/10/11 05:05:51;;;;;;;3.33;3.03;;;17.40;80.30;17.80;96998.00;;;;5062664;28;20209;-86
2022/10/11 05:08:19;;;;;;;2.70;2.50;;;17.50;80.40;17.90;96999.00;;;;5064908;28;20200;-86
2022/10/11 05:10:56;;;;;;;3.17;2.77;;;17.40;80.30;17.80;96998.00;;;;5063232;28;20204;-86
2022/10/11 05:13:23;;;;;;;3.30;3.00;;;17.50;80.50;17.90;97001.00;;;;5053259;28;20221;-86
2022/10/11 05:15:50;;;;;;;3.27;2.97;;;17.40;80.20;17.90;97003.00;;;;5055571;28;20212;-85
2022/10/11 05:18:18;;;;;;;3.40;3.10;;;17.50;80.30;17.90;97002.00;;;;5062703;28;20260;-86
2022/10/11 05:20:45;;;;;;;3.83;2.83;;;17.50;80.30;17.90;97012.00;;;;5060899;28;20642;-85
2022/10/11 05:23:14;;;;;;;3.00;2.77;;;17.50;80.30;17.90;97003.00;;;;5040104;28;20263;-85
2022/10/11 05:25:41;;;;;;;5.33;3.10;;;17.50;80.40;17.90;97001.00;;;;5049692;28;20197;-86
2022/10/11 05:28:08;;;;;;;3.17;2.87;;;17.50;80.30;17.90;97004.00;;;;5041670;28;20667;-86
2022/10/11 05:30:35;;;;;;;2.90;2.70;;;17.50;80.30;17.90;97008.00;;;;5044462;28;20217;-85
2022/10/11 05:33:03;;;;;;;3.67;2.83;;;17.50;80.30;17.90;96993.00;;;;5064551;28;20659;-86
2022/10/11 05:35:30;;;;;;;3.20;2.90;;;17.50;81.00;18.00;97009.00;;;;5059114;28;20185;-86
2022/10/11 05:37:57;;;;;;;4.30;2.80;;;17.50;80.40;18.00;97015.00;;;;5069289;28;20189;-86
2022/10/11 05:40:25;;;;;;;3.30;3.00;;;17.50;80.40;18.00;97020.00;;;;5060883;28;20724;-86
2022/10/11 05:42:52;;;;;;;5.77;3.37;;;17.60;80.50;18.00;97015.00;;;;5067299;28;20231;-86
2022/10/11 05:45:20;;;;;;;4.13;3.43;;;17.60;80.50;18.00;97014.00;;;;5082660;28;20253;-86
2022/10/11 05:47:47;;;;;;;3.27;3.00;;;17.60;80.40;18.00;97016.00;;;;5072319;28;20198;-86
2022/10/11 05:50:14;;;;;;;3.00;2.73;;;17.60;80.50;18.00;97021.00;;;;5068101;28;20287;-86
2022/10/11 05:52:41;;;;;;;3.40;2.83;;;17.60;80.50;18.10;97022.00;;;;5064475;28;20272;-86
2022/10/11 05:55:09;;;;;;;2.87;2.67;;;17.60;80.60;18.10;97024.00;;;;5060857;28;20216;-86
2022/10/11 05:57:38;;;;;;;2.97;2.77;;;17.60;80.60;18.10;97033.00;;;;5072438;28;20205;-86
2022/10/11 06:00:07;;;;;;;3.17;2.90;;;17.70;80.70;18.10;97037.00;;;;5072840;28;20612;-86
2022/10/11 06:02:35;;;;;;;2.90;2.60;;;17.70;80.70;18.10;97035.00;;;;5070699;28;20216;-86
2022/10/11 06:05:02;;;;;;;2.93;2.67;;;17.70;80.80;18.10;97034.00;;;;5070689;28;20197;-86
2022/10/11 06:07:29;;;;;;;2.90;2.70;;;17.70;80.80;18.20;97041.00;;;;5064534;28;20267;-86
2022/10/11 06:09:56;;;;;;;3.00;2.70;;;17.70;80.80;18.20;97037.00;;;;5046901;28;20225;-86
2022/10/11 06:12:23;;;;;;;5.80;2.57;;;17.70;80.90;18.20;97039.00;;;;5060896;28;20332;-87
2022/10/11 06:14:52;;;;;;;2.83;2.63;;;17.80;80.50;18.30;97041.00;;;;5059885;28;20224;-87
2022/10/11 06:17:19;;;;;;;4.03;2.77;;;17.80;80.90;18.30;97044.00;;;;5061949;28;20251;-87
2022/10/11 06:19:46;;;;;;;2.83;2.63;;;17.80;81.00;18.30;97045.00;;;;5055986;28;20217;-87
2022/10/11 06:22:13;;;;;;;2.73;2.53;;;17.80;81.10;18.40;97048.00;;;;5054313;28;20215;-87
2022/10/11 06:24:40;;;;;;;4.53;2.60;;;17.90;81.10;18.40;97047.00;;;;5052283;28;20292;-87
2022/10/11 06:27:07;;;;;;;3.43;2.50;;;17.90;81.10;18.40;97050.00;;;;5056381;28;20235;-86
2022/10/11 06:29:35;;;;;;;3.23;2.70;;;17.90;81.00;18.50;97054.00;;;;5056213;28;20288;-86
2022/10/11 06:32:04;;;;;;;2.90;2.70;;;17.90;81.10;18.50;97054.00;;;;5057368;28;20221;-87
2022/10/11 06:34:31;;;;;;;3.43;3.13;;;18.00;81.20;18.50;97050.00;;;;5057609;28;20216;-87
2022/10/11 06:36:58;;;;;;;3.80;3.50;;;18.00;81.20;18.50;97055.00;;;;5055487;28;20227;-86
2022/10/11 06:39:25;;;;;;;3.93;3.63;;;18.00;81.20;18.50;97059.00;;;;5051693;28;20201;-87
2022/10/11 06:41:53;;;;;;;4.20;3.27;;;18.00;81.20;18.50;97053.00;;;;5048775;28;20216;-87
2022/10/11 06:44:20;;;;;;;3.00;2.73;;;18.00;81.20;18.60;97069.00;;;;5051319;28;20239;-87
2022/10/11 06:46:47;;;;;;;3.13;2.50;;;18.10;81.30;18.60;97071.00;;;;5056357;28;20235;-87
2022/10/11 06:49:15;;;;;;;3.83;3.00;;;18.10;81.40;18.60;97079.00;;;;5054780;28;20280;-87
2022/10/11 06:51:42;;;;;;;4.17;2.90;;;18.10;81.30;18.60;97075.00;;;;5054218;28;20247;-87
2022/10/11 06:54:09;;;;;;;3.17;2.97;;;18.10;81.30;18.70;97077.00;;;;5037502;28;20279;-87
2022/10/11 06:56:37;;;;;;;3.53;2.80;;;18.20;81.20;18.70;97077.00;;;;5037452;28;20189;-87
2022/10/11 06:59:04;;;;;;;3.27;3.07;;;18.20;81.20;18.70;97080.00;;;;5049260;28;20208;-86
2022/10/11 07:01:31;;;;;;;3.30;2.87;;;18.20;81.10;18.80;97087.00;;;;5058798;28;20227;-86
2022/10/11 07:04:00;;;;;;;4.20;2.77;;;18.30;81.00;18.80;97088.00;;;;5056988;28;20207;-87
2022/10/11 07:06:40;;;;;;;3.03;2.83;;;18.30;81.00;18.80;97092.00;;;;5077549;22;20228;-84
2022/10/11 07:09:08;;;;;;;2.90;2.70;;;18.30;81.00;18.80;97093.00;;;;5070614;28;20208;-84
2022/10/11 07:11:36;;;;;;;3.33;2.90;;;18.30;81.00;18.90;97096.00;;;;5060944;28;20260;-83
2022/10/11 07:14:06;;;;;;;3.20;2.83;;;18.40;81.00;18.90;97096.00;;;;5048327;28;20283;-83
2022/10/11 07:19:06;;;;;;;2.90;2.70;;;18.40;80.80;18.90;97092.00;;;;5078850;28;20212;-88
2022/10/11 07:21:35;;;;;;;2.70;2.50;;;18.40;80.90;19.00;97098.00;;;;5074383;28;20279;-83
2022/10/11 07:24:02;;;;;;;2.73;2.43;;;18.50;81.00;19.00;97106.00;;;;5082885;28;20206;-83
2022/10/11 07:26:32;;;;;;;3.10;2.90;;;18.50;81.80;19.00;97105.00;;;;5064546;28;20217;-83
2022/10/11 07:28:59;;;;;;;3.17;2.63;;;18.50;81.10;19.00;97105.00;;;;5074385;28;20665;-83
2022/10/11 07:31:27;;;;;;;2.93;2.60;;;18.50;81.10;19.00;97107.00;;;;5072567;28;20231;-87
2022/10/11 07:33:54;;;;;;;3.40;2.70;;;18.50;81.10;19.10;97116.00;;;;5074629;28;20239;-85
2022/10/11 07:36:23;;;;;;;3.30;3.00;;;18.60;81.00;19.10;97111.00;;;;5065673;28;20748;-85
2022/10/11 07:38:51;;;;;;;2.90;2.10;;;18.60;80.80;19.10;97110.00;;;;5058553;28;20197;-84
2022/10/11 07:41:19;;;;;;;2.93;2.63;;;18.60;80.80;19.20;97109.00;;;;5058372;28;20228;-86
2022/10/11 07:43:48;;;;;;;3.10;2.90;;;18.60;80.80;19.20;97114.00;;;;5055139;28;20288;-85
2022/10/11 07:46:16;;;;;;;2.67;2.20;;;18.70;80.90;19.20;97114.00;;;;5070925;28;20230;-85
2022/10/11 07:48:43;;;;;;;2.90;2.60;;;18.70;80.80;19.30;97115.00;;;;5074530;28;20196;-85
2022/10/11 07:51:13;;;;;;;2.73;2.50;;;18.70;80.80;19.30;97122.00;;;;5067295;28;20204;-85
2022/10/11 07:53:42;;;;;;;2.70;2.40;;;18.70;80.80;19.30;97122.00;;;;5064442;28;20192;-84
2022/10/11 07:56:13;;;;;;;2.80;2.30;;;18.80;80.90;19.40;97123.00;;;;5074444;28;20306;-85
2022/10/11 07:58:41;;;;;;;3.07;2.77;;;18.80;80.80;19.40;97118.00;;;;5075284;28;20267;-85
2022/10/11 08:01:11;;;;;;;2.93;2.63;;;18.80;80.60;19.40;97119.00;;;;5062348;28;20230;-84
2022/10/11 08:03:40;;;;;;;2.37;2.17;;;18.90;80.60;19.40;97113.00;;;;5074392;28;20293;-85
2022/10/11 08:06:09;;;;;;;2.50;2.30;;;18.90;80.70;19.50;97126.00;;;;5071635;28;20629;-85
2022/10/11 08:08:37;;;;;;;2.50;2.30;;;18.90;80.70;19.50;97116.00;;;;5073222;28;20282;-84
2022/10/11 08:11:06;;;;;;;3.57;2.73;;;18.90;80.60;19.50;97128.00;;;;5066413;28;20211;-85
2022/10/11 08:13:34;;;;;;;3.90;2.77;;;19.00;80.50;19.50;97123.00;;;;5071229;28;20196;-85
2022/10/11 08:16:09;;;;;;;2.60;2.40;;;19.00;80.50;19.60;97122.00;;;;5069708;28;20219;-85
2022/10/11 08:18:36;;;;;;;2.90;2.60;;;19.00;80.50;19.60;97122.00;;;;5064142;28;20239;-85
2022/10/11 08:21:07;;;;;;;3.97;2.37;;;19.00;80.50;19.70;97123.00;;;;5070441;28;20278;-86
2022/10/11 08:23:37;;;;;;;3.17;2.50;;;19.10;80.40;19.70;97124.00;;;;5055878;28;20200;-85
2022/10/11 08:26:22;;;;;;;2.93;2.53;;;19.10;80.50;19.70;97117.00;;;;5054805;28;20217;-85
2022/10/11 08:28:51;;;;;;;3.33;2.60;;;19.20;80.50;19.80;97127.00;;;;5057641;28;20286;-84
2022/10/11 08:31:18;;;;;;;3.57;2.70;;;19.20;80.60;19.80;97127.00;;;;5066487;28;20287;-83
2022/10/11 08:33:46;;;;;;;3.13;2.80;;;19.20;81.40;19.90;97131.00;;;;5066148;28;20200;-83
2022/10/11 08:36:13;;;;;;;3.80;2.67;;;19.30;80.70;20.00;97131.00;;;;5057402;28;20685;-83
2022/10/11 08:38:41;;;;;;;2.97;2.60;;;19.30;81.40;20.00;97132.00;;;;5064970;28;20247;-82
2022/10/11 08:41:31;;;;;;;2.83;2.63;;;19.40;80.90;20.10;97127.00;;;;5064899;28;20308;-86
2022/10/11 08:44:17;;;;;;;3.40;3.00;;;19.50;81.00;20.20;97128.00;;;;5064680;28;20207;-84
2022/10/11 08:46:52;;;;;;;2.97;2.77;;;19.50;80.60;20.20;97134.00;;;;5068960;28;20371;-84
2022/10/11 08:49:26;;;;;;;4.40;2.80;;;19.60;80.40;20.30;97142.00;;;;5056063;28;20721;-85
2022/10/11 08:52:03;;;;;;;3.50;3.17;;;19.60;80.10;20.30;97134.00;;;;5061456;28;20194;-85
2022/10/11 08:54:55;;;;;;;3.83;3.00;;;19.60;79.90;20.40;97141.00;;;;5071437;28;20216;-84
2022/10/11 08:57:37;;;;;;;3.93;3.10;;;19.70;79.80;20.40;97139.00;;;;5054060;28;20219;-85
2022/10/11 09:00:14;;;;;;;3.77;2.80;;;19.80;79.90;20.50;97144.00;;;;5066610;28;20291;-85
2022/10/11 09:02:53;;;;;;;3.00;2.70;;;19.80;80.10;20.60;97140.00;;;;5070474;28;20597;-86
2022/10/11 09:05:23;;;;;;;3.90;2.97;;;19.90;80.20;20.70;97143.00;;;;5071693;28;20720;-83
2022/10/11 09:08:01;;;;;;;3.67;3.00;;;20.00;80.20;20.70;97148.00;;;;5073045;28;20231;-83
2022/10/11 09:10:50;;;;;;;4.07;3.30;;;20.00;80.00;20.80;97155.00;;;;5072797;28;20291;-83
2022/10/11 09:13:41;;;;;;;3.87;3.03;;;20.10;79.30;20.80;97146.00;;;;5071261;28;20732;-85
2022/10/11 09:16:23;;;;;;;3.90;3.27;;;20.10;78.80;20.80;97152.00;;;;5063723;28;20283;-86
2022/10/11 09:19:21;;;;;;;4.07;3.67;;;20.20;78.20;20.80;97146.00;;;;5057774;28;20688;-85
2022/10/11 09:22:02;;;;;;;3.10;2.90;;;20.20;78.20;20.80;97147.00;;;;5052811;28;20317;-85
2022/10/11 09:24:52;;;;;;;3.53;3.13;;;20.20;78.30;20.80;97152.00;;;;5073734;28;20278;-84
2022/10/11 09:27:49;;;;;;;3.63;3.33;;;20.20;78.00;20.90;97146.00;;;;5054267;28;20247;-85
2022/10/11 09:30:19;;;;;;;3.40;3.10;;;20.30;77.80;20.90;97145.00;;;;5058010;28;20212;-85
2022/10/11 09:33:02;;;;;;;3.10;2.50;;;20.30;78.00;21.00;97144.00;;;;5065096;28;20466;-87
2022/10/11 09:35:39;;;;;;;3.30;3.00;;;20.30;78.10;21.00;97143.00;;;;5062496;28;20352;-85
2022/10/11 09:38:39;;;;;;;3.30;3.00;;;20.40;78.00;21.00;97149.00;;;;5068121;28;20196;-85
2022/10/11 09:41:18;;;;;;;3.30;3.07;;;20.40;77.90;21.10;97147.00;;;;5065832;28;20588;-86
2022/10/11 09:43:50;;;;;;;4.57;3.20;;;20.50;77.70;21.00;97153.00;;;;5069488;28;20209;-85
2022/10/11 09:46:29;;;;;;;3.50;2.97;;;20.50;77.30;21.00;97147.00;;;;5064597;28;20251;-85
2022/10/11 09:49:00;;;;;;;4.37;3.47;;;20.50;76.90;21.00;97151.00;;;;5062646;28;20192;-86
2022/10/11 09:51:28;;;;;;;4.97;3.00;;;20.50;76.80;21.00;97147.00;;;;5067776;28;20279;-85
2022/10/11 09:53:59;;;;;;;4.97;3.00;;;20.40;76.90;21.00;97153.00;;;;5064159;28;20192;-85
2022/10/11 09:56:30;;;;;;;4.57;2.93;;;20.40;77.00;21.00;97150.00;;;;5070438;28;20295;-85
2022/10/11 09:59:23;;;;;;;3.40;3.03;;;20.50;76.80;21.10;97147.00;;;;5062960;28;20219;-85
2022/10/11 10:02:18;;;;;;;4.33;3.17;;;20.50;76.70;21.10;97149.00;;;;5064414;28;20295;-83
2022/10/11 10:05:15;;;;;;;4.73;3.20;;;20.50;76.90;21.20;97152.00;;;;5072221;28;20287;-83
2022/10/11 10:08:22;;;;;;;4.90;3.30;;;20.60;76.70;21.20;97145.00;;;;5059578;28;20227;-84
2022/10/11 10:11:01;;;;;;;3.20;2.90;;;20.60;76.70;21.30;97146.00;;;;5067176;28;20226;-85
2022/10/11 10:13:40;;;;;;;3.07;2.83;;;20.70;76.80;21.30;97145.00;;;;5064176;28;20261;-84
2022/10/11 10:16:20;;;;;;;3.33;3.03;;;20.70;77.10;21.40;97153.00;;;;5064363;28;20251;-84
2022/10/11 10:18:54;;;;;;;3.60;3.30;;;20.70;77.10;21.40;97145.00;;;;5072040;28;20657;-84
2022/10/11 10:21:30;;;;;;;3.60;3.07;;;20.70;76.90;21.50;97152.00;;;;5071485;28;20276;-84
2022/10/11 10:24:02;;;;;;;3.17;2.90;;;20.80;76.60;21.50;97147.00;;;;5067092;28;20259;-84
2022/10/11 10:26:30;;;;;;;3.07;2.73;;;20.80;76.50;21.60;97146.00;;;;5069352;28;20230;-84
2022/10/11 10:29:18;;;;;;;3.33;2.60;;;20.90;76.40;21.60;97153.00;;;;5060893;28;20200;-83
2022/10/11 10:31:55;;;;;;;6.50;2.63;;;20.90;76.50;21.70;97157.00;;;;5062990;28;20662;-86
2022/10/11 10:34:31;;;;;;;3.70;3.40;;;21.00;76.10;21.70;97154.00;;;;5069463;28;20603;-83
2022/10/11 10:37:11;;;;;;;3.43;2.90;;;21.00;75.90;21.70;97147.00;;;;5057686;28;20339;-84
2022/10/11 10:39:44;;;;;;;2.93;2.70;;;21.00;75.70;21.70;97153.00;;;;5063006;28;20283;-86
2022/10/11 10:42:16;;;;;;;3.20;2.90;;;21.00;76.10;21.80;97150.00;;;;5067541;28;20282;-83
2022/10/11 10:44:47;;;;;;;3.10;2.77;;;21.10;76.80;21.80;97143.00;;;;5063283;28;20282;-84
2022/10/11 10:47:28;;;;;;;2.80;2.60;;;21.10;75.80;21.90;97152.00;;;;5071155;28;20386;-83
2022/10/11 10:50:05;;;;;;;3.07;2.60;;;21.20;75.20;21.90;97153.00;;;;5063414;28;20204;-83
2022/10/11 10:52:51;;;;;;;2.67;2.47;;;21.20;75.00;21.90;97152.00;;;;5067177;28;20210;-84
2022/10/11 10:55:34;;;;;;;4.10;2.97;;;21.20;75.10;22.00;97144.00;;;;5057013;28;20200;-84
2022/10/11 10:58:17;;;;;;;3.17;2.63;;;21.30;74.50;22.00;97152.00;;;;5064039;28;20217;-84
2022/10/11 11:00:48;;;;;;;4.10;2.80;;;21.30;75.10;22.00;97151.00;;;;5068747;28;20206;-86
2022/10/11 11:03:26;;;;;;;3.20;2.70;;;21.30;75.00;22.00;97148.00;;;;5071782;28;20743;-85
2022/10/11 11:06:04;;;;;;;4.07;3.00;;;21.30;74.60;22.00;97146.00;;;;5059655;28;20311;-85
2022/10/11 11:09:01;;;;;;;2.67;2.47;;;21.40;74.70;22.00;97148.00;;;;5069120;28;20199;-85
2022/10/11 11:11:47;;;;;;;3.00;2.70;;;21.40;74.70;22.00;97150.00;;;;5063031;28;20200;-84
2022/10/11 11:14:30;;;;;;;2.80;2.50;;;21.40;74.50;21.90;97138.00;;;;5057430;28;20287;-84
2022/10/11 11:17:12;;;;;;;3.67;2.40;;;21.40;74.30;21.90;97139.00;;;;5069404;28;20742;-85
2022/10/11 11:19:59;;;;;;;3.17;2.93;;;21.40;74.20;21.90;97130.00;;;;5073872;28;20200;-86
2022/10/11 11:22:45;;;;;;;3.77;3.33;;;21.30;74.30;21.80;97136.00;;;;5068919;28;20205;-84